Island Lake, Canada
Current Conditions -  °F | °C
As of 5:00 AM on Tuesday 21 Oct 2014 (Local Time) from CYIV Reporting Station
Overcast Overcast  
Wind Chill: 30°   Ceiling: 900
Heat Index: 37°   Visibility: 15mi
Dew Point: 36°   Wind: 12mph
Humidity: 93%   Direction: 150°SSE
Pressure: 30.02"   Gusts: 18mph
Location:  53.85°N, 94.65°W
Report Text: CYIV 211000Z 15010G16KT 15SM OVC009 03/02 A3002 RMK SC8 SLP179
Loading
Personal Weather Stations






























Interactive Weather Map
Tropical Storm Tracking
New forecast layout! Learn more

10-Day Weather Forecast

Advertisements
Track Severe Weather on mobile